Overview Statistics Trail Chart Weather Telemetry Raw packets
 

This is the latest recevied weather packets stored in our database for station/object K5IDL. If no packets are shown the sender has not sent any weather packets the latest 10 day(s).

<< 10 11 12 13 14 15 16 >>
Time Temp. Humidity Pressure Rain* Wind** Luminosity Snow
1788638733 37.22° C 43% 1013.6 hPa 0 mm - 58 W/m² -
1788638433 36.67° C 42% 1013.4 hPa 0 mm - 43 W/m² -
1788638132 36.67° C 43% 1013.8 hPa 0 mm - 87 W/m² -
1788637827 36.67° C 44% 1013.7 hPa 0 mm - 61 W/m² -
1788637522 36.67° C 43% 1013.7 hPa 0 mm - 43 W/m² -
1788637221 36.67° C 44% 1013.7 hPa 0 mm - 85 W/m² -
1788636916 35.56° C 45% 1013.7 hPa 0 mm - 61 W/m² -
1788636611 35.56° C 45% 1013.8 hPa 0 mm - 72 W/m² -
1788636306 36.11° C 44% 1014 hPa 0 mm - 46 W/m² -
1788636002 36.11° C 46% 1014.2 hPa 0 mm - 48 W/m² -
1788635701 36.11° C 45% 1014.3 hPa 0 mm - 50 W/m² -
1788635400 35.56° C 46% 1014.5 hPa 0 mm - 62 W/m² -
1788635098 36.11° C 47% 1014.5 hPa 0 mm - 61 W/m² -
1788634797 36.67° C 44% 1014.5 hPa 0 mm - 80 W/m² -
1788634492 36.11° C 47% 1014.6 hPa 0 mm - 118 W/m² -
1788634191 35° C 48% 1014.8 hPa 0 mm - 86 W/m² -
1788633886 36.67° C 46% 1014.7 hPa 0 mm - 141 W/m² -
1788633584 35.56° C 49% 1014.7 hPa 0 mm - 269 W/m² -
1788633279 36.67° C 47% 1014.9 hPa 0 mm - 431 W/m² -
1788632974 37.22° C 46% 1015.1 hPa 0 mm - 243 W/m² -
1788632673 36.11° C 47% 1014.8 hPa 0 mm - 549 W/m² -
1788632369 36.67° C 47% 1015.1 hPa 0 mm - 682 W/m² -
1788632069 36.11° C 47% 1015.3 hPa 0 mm - 691 W/m² -
1788631768 36.11° C 49% 1015.3 hPa 0 mm - 113 W/m² -
1788631463 35° C 50% 1015.1 hPa 0 mm - 689 W/m² -

* Rain latest hour (hover to see other rain measurements)
** Current wind speed in m/s (hover to see current wind gust speed)